Brazoria, TX (77422)

5:58 PM CDT on March 24, 2017 (GMT -0500)
| | Change Station
Active Advisory: Wind Advisory

Elev -9999 ft 0.00 °N, 0.00 °E | Updated 18 minutes ago

Overcast
Overcast
°F
Feels Like °F
N
Wind Variable Wind from North
Gusts mph

Today
High -- | Low -- °F
--% Chance of Precip.
Yesterday
High -- | Low -- °F
Precip. -- in
Pressure 29.94 in
Visibility 10.0 miles
Clouds Few 1800 ft
Overcast 7000 ft
Dew Point Not available.
Humidity Not available.
Rainfall --
Snow Depth Not available.
7:21 AM 7:36 PM
Waning Crescent, 12% visible
METAR KLBX 242253Z AUTO 17019G26KT 10SM FEW018 OVC070 24/21 A2993 RMK AO2 PK WND 17032/2154 SLP136 T02440206
Pressure 29.94 in
Visibility 10.0 miles
Clouds Few 1800 ft
Overcast 7000 ft
Dew Point Not available.
Humidity Not available.
Rainfall --
Snow Depth Not available.
7:21 AM 7:36 PM
Waning Crescent, 12% visible
METAR KLBX 242253Z AUTO 17019G26KT 10SM FEW018 OVC070 24/21 A2993 RMK AO2 PK WND 17032/2154 SLP136 T02440206

Get Your Daily Forecast Email!

Thanks for signing up!

Be on the lookout for a verification email in your inbox.

You'll start receiving severe weather alerts in your inbox..

×

10-Day Weather Forecast

Almanac

Astronomy

Mar. 24, 2017 Rise Set
Actual Time
Civil Twilight
Nautical Twilight
Astronomical Twilight
Moon
Length of Visible Light
Length of Day
Tomorrow will be .
, % of the Moon is Illuminated

Today's Extremes

State Highs State Lows

Community

WunderPhotos

Upload Photos

1,962,540 photos uploaded!

WunderBlog® & News

Nearby

Air Quality

  Air Quality AQ Index Pollutant
Not available.

Snow Depth

Station Depth Elevation

Earthquake Activity

City Distance Mag. Time & Date
Minimum magnitude displayed is 2.5.

Earthquake Activity

City Distance Mag. Time & Date
Minimum magnitude displayed is 2.5.

Coastal Water Temperatures

Place Temperature

Stations

Nearby Weather Stations

Station Location Temp. Windchill Dew Point Humidity Wind Precip. Elev Updated Type
                   

Watches & Warnings

Wind Advisory
Issued: 3:15 PM CDT Mar. 24, 2017 – National Weather Service

... Wind Advisory now in effect until 8 PM CDT this evening...

* event... strong south winds between 20 and 30 mph. Gusts over 30
mph.

* Timing... through this evening.

* Impact... unsecured light weight items could be tossed about by
strong winds. Drivers on east west oriented roads should
prepare for strong cross winds and drivers of high profile
vehicles should be particularly cautious.

Precautionary/preparedness actions...

Drivers of vans... campers... trailers... and other high-profile
vehicles should be alert to the danger of these winds...
especially when driving along east to west oriented roads